TGL16LR EGPH-LFBZ
Flight info
| Callsign | TGL16LR |
|---|---|
| Flight time | 2h 6m |
| Altitude | 37000 |
| Route | GOSAM P600 FENIK L612 NAVSO DCT ADZOP DCT EGTOC DCT NOKIN N862 KARNO/N0436F360 DCT ALHUP DCT ABWIV DCT PACSE DCT SIDHO DCT TONQU/N0441F370 DCT MANIG DCT BADUR DCT KORER UM616 TUPAR DCT CNA DCT VAVIX/N0346F190 DCT MAGEC MAGE2S |
| Aircraft | A320/M-SDE3FGHIRWY/LB1 |
Departure
| Time | 2026-05-05 09:26 |
|---|---|
| Airport | Edinburgh Airport (EGPH) |
Arrival
| Time | 2026-05-05 11:33 |
|---|---|
| Airport | Biarritz Pays Basque airport (LFBZ) |
| Time | Latitude | Longitude | Altitude | Speed | Heading |
|---|---|---|---|---|---|
| 2026-05-05 08:56 | 55.94860 | -3.36611 | 116 ft | 0 kts | 145° |
| 2026-05-05 09:16 | 55.94864 | -3.36616 | 113 ft | 4 kts | 145° |
| 2026-05-05 09:16 | 55.94886 | -3.36643 | 116 ft | 3 kts | 145° |
| 2026-05-05 09:16 | 55.94904 | -3.36662 | 112 ft | 4 kts | 175° |
| 2026-05-05 09:16 | 55.94926 | -3.36651 | 115 ft | 4 kts | 228° |
| 2026-05-05 09:17 | 55.94933 | -3.36635 | 114 ft | 0 kts | 239° |
| 2026-05-05 09:19 | 55.94929 | -3.36648 | 115 ft | 4 kts | 239° |
| 2026-05-05 09:20 | 55.94913 | -3.36696 | 116 ft | 4 kts | 239° |
| 2026-05-05 09:20 | 55.94897 | -3.36744 | 115 ft | 5 kts | 243° |
| 2026-05-05 09:20 | 55.94913 | -3.36820 | 114 ft | 9 kts | 316° |
| 2026-05-05 09:20 | 55.94919 | -3.36915 | 114 ft | 8 kts | 246° |
| 2026-05-05 09:21 | 55.94893 | -3.36994 | 113 ft | 7 kts | 238° |
| 2026-05-05 09:21 | 55.94868 | -3.37065 | 114 ft | 6 kts | 238° |
| 2026-05-05 09:21 | 55.94844 | -3.37137 | 114 ft | 8 kts | 239° |
| 2026-05-05 09:21 | 55.94812 | -3.37232 | 114 ft | 9 kts | 239° |
| 2026-05-05 09:22 | 55.94782 | -3.37319 | 113 ft | 8 kts | 239° |
| 2026-05-05 09:22 | 55.94755 | -3.37400 | 115 ft | 10 kts | 239° |
| 2026-05-05 09:22 | 55.94707 | -3.37542 | 113 ft | 13 kts | 239° |
| 2026-05-05 09:22 | 55.94662 | -3.37675 | 112 ft | 12 kts | 239° |
| 2026-05-05 09:23 | 55.94622 | -3.37793 | 114 ft | 11 kts | 239° |
| 2026-05-05 09:23 | 55.94586 | -3.37898 | 113 ft | 9 kts | 239° |
| 2026-05-05 09:23 | 55.94555 | -3.37991 | 113 ft | 8 kts | 239° |
| 2026-05-05 09:23 | 55.94528 | -3.38071 | 114 ft | 7 kts | 239° |
| 2026-05-05 09:24 | 55.94495 | -3.38167 | 114 ft | 15 kts | 239° |
| 2026-05-05 09:24 | 55.94435 | -3.38345 | 113 ft | 16 kts | 239° |
| 2026-05-05 09:24 | 55.94379 | -3.38508 | 115 ft | 15 kts | 238° |
| 2026-05-05 09:24 | 55.94330 | -3.38654 | 115 ft | 13 kts | 238° |
| 2026-05-05 09:25 | 55.94287 | -3.38782 | 115 ft | 10 kts | 242° |
| 2026-05-05 09:25 | 55.94304 | -3.38883 | 113 ft | 9 kts | 321° |
| 2026-05-05 09:25 | 55.94372 | -3.38960 | 114 ft | 12 kts | 329° |
| 2026-05-05 09:25 | 55.94422 | -3.38956 | 114 ft | 8 kts | 61° |
| 2026-05-05 09:26 | 55.94499 | -3.38721 | 113 ft | 53 kts | 58° |
| 2026-05-05 09:26 | 55.94812 | -3.37809 | 113 ft | 116 kts | 59° |
| 2026-05-05 09:26 | 55.95311 | -3.36352 | 337 ft | 144 kts | 56° |
| 2026-05-05 09:26 | 55.95831 | -3.34818 | 998 ft | 146 kts | 54° |
| 2026-05-05 09:27 | 55.96525 | -3.33490 | 1576 ft | 153 kts | 38° |
| 2026-05-05 09:27 | 55.97377 | -3.32153 | 1928 ft | 174 kts | 39° |
| 2026-05-05 09:27 | 55.98344 | -3.30603 | 2226 ft | 199 kts | 40° |
| 2026-05-05 09:27 | 55.99462 | -3.28863 | 2570 ft | 226 kts | 33° |
| 2026-05-05 09:28 | 56.00997 | -3.28013 | 3105 ft | 243 kts | 355° |
| 2026-05-05 09:28 | 56.02566 | -3.29159 | 3945 ft | 253 kts | 319° |
| 2026-05-05 09:28 | 56.03468 | -3.31809 | 4809 ft | 261 kts | 282° |
| 2026-05-05 09:28 | 56.03462 | -3.35112 | 5659 ft | 267 kts | 262° |
| 2026-05-05 09:29 | 56.03045 | -3.38313 | 5936 ft | 268 kts | 255° |
| 2026-05-05 09:29 | 56.02473 | -3.41486 | 6004 ft | 268 kts | 252° |
| 2026-05-05 09:29 | 56.01905 | -3.44646 | 6006 ft | 266 kts | 260° |
| 2026-05-05 09:29 | 56.01949 | -3.47888 | 6012 ft | 263 kts | 282° |
| 2026-05-05 09:30 | 56.02096 | -3.51145 | 6013 ft | 265 kts | 265° |
| 2026-05-05 09:30 | 56.01511 | -3.54288 | 6700 ft | 271 kts | 243° |
| 2026-05-05 09:30 | 56.00558 | -3.57199 | 7658 ft | 272 kts | 241° |
| 2026-05-05 09:30 | 55.99581 | -3.60111 | 8580 ft | 275 kts | 241° |
| 2026-05-05 09:31 | 55.98586 | -3.63045 | 9482 ft | 278 kts | 241° |
| 2026-05-05 09:31 | 55.97574 | -3.66012 | 10311 ft | 283 kts | 242° |
| 2026-05-05 09:31 | 55.96503 | -3.69137 | 10618 ft | 307 kts | 240° |
| 2026-05-05 09:31 | 55.95013 | -3.72028 | 11026 ft | 329 kts | 218° |
| 2026-05-05 09:32 | 55.92888 | -3.73670 | 11743 ft | 342 kts | 193° |
| 2026-05-05 09:32 | 55.90501 | -3.74102 | 12519 ft | 347 kts | 187° |
| 2026-05-05 09:32 | 55.88083 | -3.74386 | 13292 ft | 350 kts | 186° |
| 2026-05-05 09:32 | 55.85641 | -3.74631 | 14004 ft | 353 kts | 186° |
| 2026-05-05 09:33 | 55.83172 | -3.74868 | 14648 ft | 356 kts | 186° |
| 2026-05-05 09:33 | 55.80687 | -3.75114 | 15292 ft | 359 kts | 186° |
| 2026-05-05 09:33 | 55.78182 | -3.75372 | 15938 ft | 362 kts | 187° |
| 2026-05-05 09:33 | 55.75629 | -3.75641 | 16591 ft | 365 kts | 187° |
| 2026-05-05 09:34 | 55.73111 | -3.75908 | 17209 ft | 368 kts | 187° |
| 2026-05-05 09:34 | 55.70545 | -3.76184 | 17846 ft | 371 kts | 187° |
| 2026-05-05 09:34 | 55.67957 | -3.76463 | 18461 ft | 374 kts | 187° |
| 2026-05-05 09:34 | 55.65351 | -3.76744 | 19010 ft | 377 kts | 187° |
| 2026-05-05 09:35 | 55.62727 | -3.77025 | 19527 ft | 380 kts | 186° |
| 2026-05-05 09:35 | 55.57412 | -3.77599 | 20574 ft | 386 kts | 186° |
| 2026-05-05 09:35 | 55.54723 | -3.77889 | 21091 ft | 389 kts | 186° |
| 2026-05-05 09:36 | 55.52015 | -3.78179 | 21576 ft | 392 kts | 186° |
| 2026-05-05 09:36 | 55.49280 | -3.78471 | 22070 ft | 395 kts | 186° |
| 2026-05-05 09:36 | 55.46532 | -3.78767 | 22551 ft | 398 kts | 186° |
| 2026-05-05 09:36 | 55.43769 | -3.79064 | 23107 ft | 398 kts | 186° |
| 2026-05-05 09:37 | 55.40998 | -3.79358 | 23624 ft | 400 kts | 186° |
| 2026-05-05 09:37 | 55.38254 | -3.79652 | 24024 ft | 402 kts | 186° |
| 2026-05-05 09:37 | 55.35452 | -3.79950 | 24433 ft | 404 kts | 186° |
| 2026-05-05 09:37 | 55.32638 | -3.80250 | 24831 ft | 406 kts | 186° |
| 2026-05-05 09:38 | 55.29813 | -3.80554 | 25218 ft | 408 kts | 186° |
| 2026-05-05 09:38 | 55.26972 | -3.80860 | 25586 ft | 410 kts | 186° |
| 2026-05-05 09:38 | 55.24107 | -3.81079 | 25964 ft | 414 kts | 182° |
| 2026-05-05 09:38 | 55.21225 | -3.80578 | 26332 ft | 420 kts | 172° |
| 2026-05-05 09:39 | 55.18387 | -3.79245 | 26680 ft | 425 kts | 166° |
| 2026-05-05 09:39 | 55.15562 | -3.77679 | 27045 ft | 427 kts | 166° |
| 2026-05-05 09:39 | 55.12722 | -3.76111 | 27409 ft | 429 kts | 166° |
| 2026-05-05 09:39 | 55.09868 | -3.74543 | 27768 ft | 431 kts | 166° |
| 2026-05-05 09:40 | 55.07001 | -3.72971 | 28124 ft | 433 kts | 166° |
| 2026-05-05 09:40 | 55.04122 | -3.71396 | 28474 ft | 435 kts | 166° |
| 2026-05-05 09:40 | 55.01224 | -3.69813 | 28823 ft | 437 kts | 166° |
| 2026-05-05 09:40 | 54.99259 | -3.68745 | 29059 ft | 439 kts | 166° |
| 2026-05-05 09:41 | 54.96334 | -3.67157 | 29391 ft | 441 kts | 166° |
| 2026-05-05 09:41 | 54.93439 | -3.65589 | 29711 ft | 442 kts | 166° |
| 2026-05-05 09:41 | 54.89500 | -3.63454 | 30156 ft | 445 kts | 166° |
| 2026-05-05 09:41 | 54.87543 | -3.62395 | 30330 ft | 446 kts | 166° |
| 2026-05-05 09:42 | 54.84574 | -3.60791 | 30585 ft | 447 kts | 166° |
| 2026-05-05 09:42 | 54.81596 | -3.59182 | 30845 ft | 449 kts | 166° |
| 2026-05-05 09:42 | 54.78606 | -3.57572 | 31089 ft | 451 kts | 166° |
| 2026-05-05 09:42 | 54.75608 | -3.55962 | 31346 ft | 452 kts | 166° |
| 2026-05-05 09:43 | 54.72608 | -3.54354 | 31694 ft | 451 kts | 166° |
| 2026-05-05 09:43 | 54.69611 | -3.52751 | 32039 ft | 450 kts | 166° |
| 2026-05-05 09:43 | 54.66621 | -3.51153 | 32399 ft | 449 kts | 166° |
| 2026-05-05 09:43 | 54.63641 | -3.49558 | 32754 ft | 448 kts | 166° |
| 2026-05-05 09:44 | 54.60666 | -3.47961 | 33098 ft | 447 kts | 166° |
| 2026-05-05 09:44 | 54.57694 | -3.46369 | 33431 ft | 447 kts | 166° |
| 2026-05-05 09:44 | 54.54727 | -3.44788 | 33765 ft | 446 kts | 166° |
| 2026-05-05 09:44 | 54.51762 | -3.43215 | 34096 ft | 446 kts | 166° |
| 2026-05-05 09:45 | 54.48797 | -3.41644 | 34371 ft | 445 kts | 166° |
| 2026-05-05 09:45 | 54.45843 | -3.40082 | 34634 ft | 445 kts | 166° |
| 2026-05-05 09:45 | 54.42875 | -3.38517 | 34879 ft | 445 kts | 165° |
| 2026-05-05 09:45 | 54.39910 | -3.36950 | 35133 ft | 445 kts | 165° |
| 2026-05-05 09:46 | 54.36949 | -3.35387 | 35377 ft | 445 kts | 165° |
| 2026-05-05 09:46 | 54.33985 | -3.33828 | 35610 ft | 445 kts | 165° |
| 2026-05-05 09:46 | 54.31021 | -3.32275 | 35843 ft | 446 kts | 165° |
| 2026-05-05 09:46 | 54.28054 | -3.30720 | 36073 ft | 446 kts | 165° |
| 2026-05-05 09:47 | 54.25091 | -3.29167 | 36294 ft | 446 kts | 165° |
| 2026-05-05 09:47 | 54.22126 | -3.27613 | 36504 ft | 446 kts | 165° |
| 2026-05-05 09:47 | 54.19150 | -3.26104 | 36695 ft | 445 kts | 168° |
| 2026-05-05 09:47 | 54.16109 | -3.25222 | 36892 ft | 443 kts | 177° |
| 2026-05-05 09:48 | 54.13041 | -3.24742 | 37021 ft | 443 kts | 177° |
| 2026-05-05 09:48 | 54.09971 | -3.24261 | 37048 ft | 442 kts | 177° |
| 2026-05-05 09:48 | 54.03855 | -3.23310 | 37052 ft | 441 kts | 177° |
| 2026-05-05 09:49 | 53.97777 | -3.21877 | 37054 ft | 443 kts | 169° |
| 2026-05-05 09:49 | 53.91803 | -3.19595 | 37052 ft | 443 kts | 169° |
| 2026-05-05 09:50 | 53.85783 | -3.17313 | 37055 ft | 443 kts | 169° |
| 2026-05-05 09:50 | 53.79766 | -3.15045 | 37064 ft | 443 kts | 169° |
| 2026-05-05 09:51 | 53.73748 | -3.12779 | 37060 ft | 443 kts | 169° |
| 2026-05-05 09:51 | 53.67732 | -3.10506 | 37050 ft | 443 kts | 169° |
| 2026-05-05 09:52 | 53.61713 | -3.08247 | 37056 ft | 443 kts | 168° |
| 2026-05-05 09:52 | 53.55701 | -3.06003 | 37056 ft | 443 kts | 169° |
| 2026-05-05 09:53 | 53.49694 | -3.03763 | 37058 ft | 443 kts | 170° |
| 2026-05-05 09:53 | 53.43675 | -3.01535 | 37059 ft | 442 kts | 169° |
| 2026-05-05 09:54 | 53.37657 | -2.99305 | 37060 ft | 442 kts | 168° |
| 2026-05-05 09:54 | 53.31647 | -2.97078 | 37059 ft | 443 kts | 168° |
| 2026-05-05 09:55 | 53.25636 | -2.94858 | 37059 ft | 442 kts | 168° |
| 2026-05-05 09:55 | 53.19624 | -2.92654 | 37061 ft | 442 kts | 168° |
| 2026-05-05 09:56 | 53.13620 | -2.90461 | 37071 ft | 441 kts | 169° |
| 2026-05-05 09:56 | 53.07598 | -2.88566 | 37067 ft | 439 kts | 177° |
| 2026-05-05 09:57 | 53.01517 | -2.88806 | 37064 ft | 437 kts | 185° |
| 2026-05-05 09:57 | 52.95441 | -2.89336 | 37060 ft | 437 kts | 183° |
| 2026-05-05 09:58 | 52.89367 | -2.89882 | 37058 ft | 437 kts | 187° |
| 2026-05-05 09:58 | 52.83396 | -2.91257 | 37053 ft | 436 kts | 188° |
| 2026-05-05 09:59 | 52.77389 | -2.92676 | 37050 ft | 436 kts | 189° |
| 2026-05-05 09:59 | 52.71374 | -2.94063 | 37045 ft | 436 kts | 186° |
| 2026-05-05 10:00 | 52.65306 | -2.94611 | 37041 ft | 437 kts | 183° |
| 2026-05-05 10:00 | 52.59230 | -2.95114 | 37039 ft | 438 kts | 183° |
| 2026-05-05 10:01 | 52.53139 | -2.95611 | 37040 ft | 438 kts | 183° |
| 2026-05-05 10:01 | 52.47054 | -2.96111 | 37040 ft | 438 kts | 183° |
| 2026-05-05 10:02 | 52.40962 | -2.96614 | 37042 ft | 438 kts | 183° |
| 2026-05-05 10:02 | 52.34865 | -2.97122 | 37042 ft | 438 kts | 183° |
| 2026-05-05 10:03 | 52.28771 | -2.97630 | 37032 ft | 439 kts | 183° |
| 2026-05-05 10:03 | 52.22657 | -2.98122 | 37034 ft | 440 kts | 183° |
| 2026-05-05 10:04 | 52.16547 | -2.98616 | 37046 ft | 439 kts | 183° |
| 2026-05-05 10:04 | 52.10439 | -2.99114 | 37045 ft | 439 kts | 183° |
| 2026-05-05 10:05 | 52.04335 | -2.99599 | 37045 ft | 439 kts | 183° |
| 2026-05-05 10:05 | 51.98234 | -3.00084 | 37030 ft | 439 kts | 183° |
| 2026-05-05 10:06 | 51.92137 | -3.00572 | 37023 ft | 438 kts | 183° |
| 2026-05-05 10:06 | 51.86049 | -3.01153 | 37014 ft | 438 kts | 186° |
| 2026-05-05 10:07 | 51.84085 | -3.01478 | 37012 ft | 438 kts | 187° |
| 2026-05-05 10:07 | 51.78257 | -3.02758 | 37007 ft | 438 kts | 188° |
| 2026-05-05 10:08 | 51.72237 | -3.04193 | 37012 ft | 437 kts | 188° |
| 2026-05-05 10:08 | 51.66218 | -3.05507 | 37014 ft | 436 kts | 187° |
| 2026-05-05 10:09 | 51.60194 | -3.06733 | 37020 ft | 436 kts | 187° |
| 2026-05-05 10:09 | 51.54176 | -3.07948 | 37020 ft | 436 kts | 187° |
| 2026-05-05 10:10 | 51.48169 | -3.09182 | 37042 ft | 435 kts | 187° |
| 2026-05-05 10:10 | 51.42172 | -3.10430 | 37039 ft | 434 kts | 187° |
| 2026-05-05 10:11 | 51.36176 | -3.11666 | 37037 ft | 434 kts | 187° |
| 2026-05-05 10:11 | 51.30182 | -3.12890 | 37033 ft | 434 kts | 187° |
| 2026-05-05 10:12 | 51.24200 | -3.14100 | 37031 ft | 433 kts | 187° |
| 2026-05-05 10:12 | 51.18214 | -3.15327 | 37028 ft | 433 kts | 187° |
| 2026-05-05 10:13 | 51.12235 | -3.16546 | 37029 ft | 433 kts | 187° |
| 2026-05-05 10:13 | 51.06264 | -3.17761 | 37027 ft | 433 kts | 187° |
| 2026-05-05 10:14 | 51.00293 | -3.18969 | 37025 ft | 433 kts | 187° |
| 2026-05-05 10:14 | 50.94357 | -3.20154 | 37029 ft | 433 kts | 187° |
| 2026-05-05 10:15 | 50.88346 | -3.21363 | 37024 ft | 433 kts | 187° |
| 2026-05-05 10:15 | 50.82374 | -3.22569 | 37029 ft | 432 kts | 187° |
| 2026-05-05 10:16 | 50.76407 | -3.23761 | 37022 ft | 433 kts | 187° |
| 2026-05-05 10:16 | 50.70468 | -3.24938 | 37027 ft | 433 kts | 187° |
| 2026-05-05 10:17 | 50.64448 | -3.26141 | 37020 ft | 433 kts | 187° |
| 2026-05-05 10:17 | 50.58508 | -3.27328 | 37006 ft | 434 kts | 186° |
| 2026-05-05 10:18 | 50.52506 | -3.28508 | 36991 ft | 435 kts | 187° |
| 2026-05-05 10:18 | 50.46493 | -3.29693 | 36995 ft | 436 kts | 187° |
| 2026-05-05 10:19 | 50.40474 | -3.30880 | 36996 ft | 436 kts | 186° |
| 2026-05-05 10:19 | 50.34421 | -3.30882 | 36989 ft | 436 kts | 176° |
| 2026-05-05 10:20 | 50.28363 | -3.30336 | 36990 ft | 436 kts | 176° |
| 2026-05-05 10:20 | 50.22295 | -3.29799 | 36991 ft | 437 kts | 176° |
| 2026-05-05 10:21 | 50.16223 | -3.29260 | 36991 ft | 437 kts | 176° |
| 2026-05-05 10:21 | 50.10149 | -3.28719 | 36996 ft | 437 kts | 176° |
| 2026-05-05 10:22 | 50.04075 | -3.28177 | 36993 ft | 437 kts | 176° |
| 2026-05-05 10:22 | 49.98001 | -3.27640 | 36996 ft | 437 kts | 176° |
| 2026-05-05 10:23 | 49.91921 | -3.27113 | 36994 ft | 437 kts | 176° |
| 2026-05-05 10:23 | 49.85843 | -3.26580 | 36990 ft | 438 kts | 176° |
| 2026-05-05 10:24 | 49.79756 | -3.26046 | 36988 ft | 438 kts | 175° |
| 2026-05-05 10:24 | 49.73750 | -3.24533 | 36977 ft | 438 kts | 168° |
| 2026-05-05 10:25 | 49.67765 | -3.22777 | 36982 ft | 438 kts | 169° |
| 2026-05-05 10:25 | 49.61814 | -3.21053 | 36977 ft | 438 kts | 169° |
| 2026-05-05 10:26 | 49.55821 | -3.19315 | 36971 ft | 439 kts | 169° |
| 2026-05-05 10:26 | 49.49822 | -3.17570 | 36974 ft | 439 kts | 169° |
| 2026-05-05 10:27 | 49.43823 | -3.15832 | 36980 ft | 439 kts | 169° |
| 2026-05-05 10:27 | 49.37828 | -3.14097 | 36981 ft | 438 kts | 169° |
| 2026-05-05 10:28 | 49.32849 | -3.12663 | 36985 ft | 438 kts | 169° |
| 2026-05-05 10:28 | 49.26859 | -3.10940 | 36976 ft | 438 kts | 169° |
| 2026-05-05 10:29 | 49.20879 | -3.09214 | 36987 ft | 437 kts | 169° |
| 2026-05-05 10:29 | 49.14923 | -3.07512 | 36992 ft | 435 kts | 169° |
| 2026-05-05 10:30 | 49.08984 | -3.05825 | 36989 ft | 434 kts | 169° |
| 2026-05-05 10:30 | 49.03051 | -3.04139 | 36989 ft | 433 kts | 169° |
| 2026-05-05 10:31 | 48.97127 | -3.02455 | 36985 ft | 433 kts | 169° |
| 2026-05-05 10:31 | 48.91211 | -3.00780 | 36981 ft | 433 kts | 169° |
| 2026-05-05 10:32 | 48.85289 | -2.99111 | 36970 ft | 432 kts | 169° |
| 2026-05-05 10:32 | 48.79491 | -2.97485 | 36961 ft | 432 kts | 169° |
| 2026-05-05 10:33 | 48.73887 | -2.95913 | 36950 ft | 432 kts | 169° |
| 2026-05-05 10:33 | 48.68049 | -2.93772 | 36943 ft | 432 kts | 163° |
| 2026-05-05 10:34 | 48.62291 | -2.91180 | 36952 ft | 432 kts | 163° |
| 2026-05-05 10:34 | 48.56527 | -2.88604 | 36950 ft | 431 kts | 163° |
| 2026-05-05 10:35 | 48.50772 | -2.86051 | 36960 ft | 431 kts | 163° |
| 2026-05-05 10:35 | 48.45019 | -2.83501 | 36959 ft | 431 kts | 163° |
| 2026-05-05 10:36 | 48.39264 | -2.80954 | 36964 ft | 431 kts | 163° |
| 2026-05-05 10:36 | 48.33518 | -2.78414 | 36958 ft | 430 kts | 163° |
| 2026-05-05 10:37 | 48.27780 | -2.75887 | 36955 ft | 428 kts | 163° |
| 2026-05-05 10:37 | 48.22064 | -2.73369 | 36944 ft | 428 kts | 163° |
| 2026-05-05 10:38 | 48.16358 | -2.70860 | 36931 ft | 428 kts | 163° |
| 2026-05-05 10:38 | 48.10641 | -2.68357 | 36914 ft | 428 kts | 163° |
| 2026-05-05 10:39 | 48.04913 | -2.65860 | 36926 ft | 429 kts | 163° |
| 2026-05-05 10:39 | 47.99185 | -2.63365 | 36931 ft | 429 kts | 163° |
| 2026-05-05 10:40 | 47.93494 | -2.60886 | 36921 ft | 429 kts | 163° |
| 2026-05-05 10:40 | 47.87750 | -2.58396 | 36910 ft | 429 kts | 163° |
| 2026-05-05 10:41 | 47.82009 | -2.55918 | 36911 ft | 430 kts | 163° |
| 2026-05-05 10:41 | 47.76268 | -2.53435 | 36923 ft | 430 kts | 163° |
| 2026-05-05 10:42 | 47.68051 | -2.48298 | 36903 ft | 429 kts | 143° |
| 2026-05-05 10:43 | 47.63836 | -2.42060 | 36906 ft | 430 kts | 131° |
| 2026-05-05 10:43 | 47.59930 | -2.35349 | 36904 ft | 430 kts | 131° |
| 2026-05-05 10:44 | 47.56005 | -2.28663 | 36904 ft | 430 kts | 131° |
| 2026-05-05 10:44 | 47.52074 | -2.21979 | 36902 ft | 431 kts | 131° |
| 2026-05-05 10:45 | 47.48138 | -2.15286 | 36899 ft | 432 kts | 131° |
| 2026-05-05 10:45 | 47.44218 | -2.08644 | 36903 ft | 432 kts | 131° |
| 2026-05-05 10:46 | 47.40263 | -2.01959 | 36920 ft | 431 kts | 132° |
| 2026-05-05 10:46 | 47.36318 | -1.95290 | 36918 ft | 431 kts | 131° |
| 2026-05-05 10:47 | 47.32369 | -1.88632 | 36900 ft | 432 kts | 131° |
| 2026-05-05 10:47 | 47.28414 | -1.81967 | 36901 ft | 432 kts | 132° |
| 2026-05-05 10:48 | 47.24452 | -1.75304 | 36920 ft | 432 kts | 132° |
| 2026-05-05 10:48 | 47.20482 | -1.68653 | 36927 ft | 432 kts | 132° |
| 2026-05-05 10:49 | 47.16503 | -1.62021 | 36913 ft | 432 kts | 134° |
| 2026-05-05 10:49 | 47.12098 | -1.56041 | 36901 ft | 432 kts | 139° |
| 2026-05-05 10:50 | 47.07646 | -1.50186 | 36889 ft | 433 kts | 139° |
| 2026-05-05 10:50 | 47.03154 | -1.44292 | 36904 ft | 433 kts | 139° |
| 2026-05-05 10:51 | 46.98658 | -1.38413 | 36903 ft | 433 kts | 139° |
| 2026-05-05 10:51 | 46.94159 | -1.32550 | 36899 ft | 433 kts | 139° |
| 2026-05-05 10:52 | 46.89661 | -1.26678 | 36910 ft | 433 kts | 139° |
| 2026-05-05 10:52 | 46.85170 | -1.20809 | 36892 ft | 433 kts | 139° |
| 2026-05-05 10:53 | 46.80671 | -1.14954 | 36897 ft | 433 kts | 139° |
| 2026-05-05 10:53 | 46.76170 | -1.09110 | 36905 ft | 433 kts | 140° |
| 2026-05-05 10:54 | 46.71658 | -1.03282 | 36910 ft | 433 kts | 140° |
| 2026-05-05 10:54 | 46.67145 | -0.97454 | 36901 ft | 433 kts | 140° |
| 2026-05-05 10:55 | 46.62632 | -0.91630 | 36894 ft | 433 kts | 140° |
| 2026-05-05 10:55 | 46.58117 | -0.85825 | 36898 ft | 433 kts | 140° |
| 2026-05-05 10:56 | 46.53599 | -0.80028 | 36880 ft | 434 kts | 140° |
| 2026-05-05 10:56 | 46.49203 | -0.74378 | 36884 ft | 434 kts | 140° |
| 2026-05-05 10:57 | 46.44655 | -0.68628 | 36890 ft | 433 kts | 145° |
| 2026-05-05 10:57 | 46.39373 | -0.64623 | 36888 ft | 428 kts | 163° |
| 2026-05-05 10:58 | 46.33690 | -0.62020 | 36886 ft | 429 kts | 163° |
| 2026-05-05 10:58 | 46.27996 | -0.59402 | 36883 ft | 430 kts | 163° |
| 2026-05-05 10:59 | 46.22290 | -0.56773 | 36884 ft | 431 kts | 163° |
| 2026-05-05 10:59 | 46.16580 | -0.54151 | 36899 ft | 431 kts | 163° |
| 2026-05-05 11:00 | 46.10859 | -0.51528 | 36900 ft | 431 kts | 163° |
| 2026-05-05 11:00 | 46.05139 | -0.48919 | 36907 ft | 432 kts | 164° |
| 2026-05-05 11:01 | 45.99412 | -0.46311 | 36908 ft | 432 kts | 163° |
| 2026-05-05 11:01 | 45.93676 | -0.43695 | 36904 ft | 433 kts | 163° |
| 2026-05-05 11:02 | 45.88207 | -0.41214 | 36911 ft | 433 kts | 164° |
| 2026-05-05 11:02 | 45.82419 | -0.38591 | 36918 ft | 433 kts | 163° |
| 2026-05-05 11:03 | 45.76707 | -0.36005 | 36921 ft | 433 kts | 164° |
| 2026-05-05 11:03 | 45.70960 | -0.33406 | 36917 ft | 433 kts | 164° |
| 2026-05-05 11:04 | 45.65067 | -0.31928 | 36928 ft | 430 kts | 181° |
| 2026-05-05 11:04 | 45.59172 | -0.33110 | 36930 ft | 428 kts | 192° |
| 2026-05-05 11:05 | 45.53316 | -0.34766 | 36922 ft | 429 kts | 192° |
| 2026-05-05 11:05 | 45.47453 | -0.36405 | 36923 ft | 430 kts | 192° |
| 2026-05-05 11:06 | 45.41577 | -0.38048 | 36928 ft | 430 kts | 192° |
| 2026-05-05 11:06 | 45.35700 | -0.39694 | 36937 ft | 431 kts | 192° |
| 2026-05-05 11:07 | 45.29819 | -0.41340 | 36939 ft | 431 kts | 192° |
| 2026-05-05 11:07 | 45.23942 | -0.42985 | 36942 ft | 431 kts | 192° |
| 2026-05-05 11:08 | 45.18056 | -0.44635 | 36606 ft | 431 kts | 192° |
| 2026-05-05 11:08 | 45.15118 | -0.45455 | 36146 ft | 430 kts | 192° |
| 2026-05-05 11:08 | 45.12172 | -0.46276 | 35392 ft | 433 kts | 192° |
| 2026-05-05 11:08 | 45.09221 | -0.47097 | 34847 ft | 430 kts | 192° |
| 2026-05-05 11:09 | 45.06293 | -0.47912 | 34323 ft | 427 kts | 192° |
| 2026-05-05 11:09 | 45.03389 | -0.48719 | 33765 ft | 424 kts | 192° |
| 2026-05-05 11:09 | 45.00504 | -0.49519 | 33221 ft | 420 kts | 192° |
| 2026-05-05 11:09 | 44.97652 | -0.50307 | 32717 ft | 417 kts | 192° |
| 2026-05-05 11:10 | 44.94852 | -0.51079 | 32194 ft | 414 kts | 192° |
| 2026-05-05 11:10 | 44.92030 | -0.51857 | 31689 ft | 411 kts | 192° |
| 2026-05-05 11:10 | 44.89239 | -0.52629 | 31196 ft | 407 kts | 192° |
| 2026-05-05 11:10 | 44.86476 | -0.53393 | 30700 ft | 403 kts | 192° |
| 2026-05-05 11:11 | 44.83740 | -0.54148 | 30216 ft | 398 kts | 192° |
| 2026-05-05 11:11 | 44.81037 | -0.54895 | 29681 ft | 394 kts | 191° |
| 2026-05-05 11:11 | 44.78372 | -0.55628 | 29220 ft | 387 kts | 191° |
| 2026-05-05 11:11 | 44.75751 | -0.56349 | 28764 ft | 381 kts | 191° |
| 2026-05-05 11:12 | 44.73174 | -0.57056 | 28330 ft | 374 kts | 191° |
| 2026-05-05 11:12 | 44.70639 | -0.57752 | 27907 ft | 368 kts | 191° |
| 2026-05-05 11:12 | 44.68140 | -0.58435 | 27504 ft | 363 kts | 191° |
| 2026-05-05 11:12 | 44.65682 | -0.59106 | 27080 ft | 357 kts | 191° |
| 2026-05-05 11:13 | 44.63258 | -0.59766 | 26677 ft | 352 kts | 191° |
| 2026-05-05 11:13 | 44.60871 | -0.60418 | 26285 ft | 348 kts | 191° |
| 2026-05-05 11:13 | 44.58509 | -0.61062 | 25896 ft | 343 kts | 191° |
| 2026-05-05 11:13 | 44.56172 | -0.61699 | 25488 ft | 343 kts | 191° |
| 2026-05-05 11:14 | 44.53818 | -0.62342 | 25079 ft | 344 kts | 191° |
| 2026-05-05 11:14 | 44.51471 | -0.62987 | 24657 ft | 344 kts | 191° |
| 2026-05-05 11:14 | 44.49129 | -0.63630 | 24228 ft | 342 kts | 191° |
| 2026-05-05 11:14 | 44.46795 | -0.64265 | 23800 ft | 341 kts | 190° |
| 2026-05-05 11:15 | 44.44475 | -0.64893 | 23334 ft | 339 kts | 190° |
| 2026-05-05 11:15 | 44.42163 | -0.65520 | 22877 ft | 337 kts | 190° |
| 2026-05-05 11:15 | 44.39873 | -0.66140 | 22446 ft | 334 kts | 191° |
| 2026-05-05 11:15 | 44.37605 | -0.66754 | 22023 ft | 331 kts | 191° |
| 2026-05-05 11:16 | 44.35357 | -0.67361 | 21602 ft | 328 kts | 191° |
| 2026-05-05 11:16 | 44.33125 | -0.67959 | 21191 ft | 325 kts | 191° |
| 2026-05-05 11:16 | 44.30917 | -0.68551 | 20776 ft | 322 kts | 191° |
| 2026-05-05 11:16 | 44.29461 | -0.68959 | 20490 ft | 321 kts | 193° |
| 2026-05-05 11:17 | 44.27364 | -0.69994 | 20069 ft | 320 kts | 205° |
| 2026-05-05 11:17 | 44.25464 | -0.71600 | 19650 ft | 319 kts | 213° |
| 2026-05-05 11:17 | 44.23645 | -0.73363 | 19239 ft | 318 kts | 213° |
| 2026-05-05 11:17 | 44.21828 | -0.75112 | 18820 ft | 317 kts | 213° |
| 2026-05-05 11:18 | 44.20011 | -0.76851 | 18411 ft | 316 kts | 213° |
| 2026-05-05 11:18 | 44.18197 | -0.78579 | 17998 ft | 315 kts | 213° |
| 2026-05-05 11:18 | 44.16405 | -0.80282 | 17624 ft | 312 kts | 213° |
| 2026-05-05 11:18 | 44.14618 | -0.81981 | 17269 ft | 309 kts | 213° |
| 2026-05-05 11:19 | 44.12848 | -0.83666 | 16790 ft | 310 kts | 213° |
| 2026-05-05 11:19 | 44.11087 | -0.85341 | 16509 ft | 304 kts | 213° |
| 2026-05-05 11:19 | 44.09330 | -0.87009 | 16118 ft | 304 kts | 214° |
| 2026-05-05 11:19 | 44.07600 | -0.88650 | 15886 ft | 298 kts | 214° |
| 2026-05-05 11:20 | 44.05893 | -0.90268 | 15583 ft | 296 kts | 214° |
| 2026-05-05 11:20 | 44.04198 | -0.91877 | 15267 ft | 294 kts | 214° |
| 2026-05-05 11:20 | 44.02514 | -0.93477 | 14952 ft | 292 kts | 214° |
| 2026-05-05 11:20 | 44.00839 | -0.95065 | 14626 ft | 291 kts | 214° |
| 2026-05-05 11:21 | 43.99170 | -0.96644 | 14298 ft | 288 kts | 214° |
| 2026-05-05 11:21 | 43.97522 | -0.98202 | 13786 ft | 285 kts | 214° |
| 2026-05-05 11:21 | 43.95890 | -0.99749 | 13141 ft | 284 kts | 215° |
| 2026-05-05 11:21 | 43.94260 | -1.01294 | 12666 ft | 283 kts | 215° |
| 2026-05-05 11:22 | 43.92639 | -1.02827 | 12268 ft | 281 kts | 215° |
| 2026-05-05 11:22 | 43.91046 | -1.04333 | 11866 ft | 280 kts | 215° |
| 2026-05-05 11:22 | 43.89445 | -1.05845 | 11473 ft | 278 kts | 215° |
| 2026-05-05 11:22 | 43.87846 | -1.07350 | 11070 ft | 277 kts | 215° |
| 2026-05-05 11:23 | 43.86255 | -1.08847 | 10698 ft | 276 kts | 215° |
| 2026-05-05 11:23 | 43.84668 | -1.10340 | 10353 ft | 275 kts | 216° |
| 2026-05-05 11:23 | 43.83090 | -1.11826 | 10002 ft | 274 kts | 216° |
| 2026-05-05 11:23 | 43.81519 | -1.13303 | 9638 ft | 272 kts | 216° |
| 2026-05-05 11:24 | 43.79960 | -1.14767 | 9263 ft | 271 kts | 217° |
| 2026-05-05 11:24 | 43.78402 | -1.16233 | 8815 ft | 271 kts | 216° |
| 2026-05-05 11:24 | 43.76841 | -1.17700 | 8408 ft | 270 kts | 216° |
| 2026-05-05 11:24 | 43.75259 | -1.19085 | 8020 ft | 270 kts | 208° |
| 2026-05-05 11:25 | 43.73481 | -1.19919 | 7636 ft | 272 kts | 194° |
| 2026-05-05 11:25 | 43.71617 | -1.20364 | 7232 ft | 272 kts | 193° |
| 2026-05-05 11:25 | 43.69758 | -1.20807 | 6847 ft | 271 kts | 193° |
| 2026-05-05 11:25 | 43.67898 | -1.21256 | 6491 ft | 271 kts | 193° |
| 2026-05-05 11:26 | 43.66045 | -1.21708 | 6082 ft | 270 kts | 193° |
| 2026-05-05 11:26 | 43.64203 | -1.22157 | 5681 ft | 268 kts | 193° |
| 2026-05-05 11:26 | 43.62378 | -1.22600 | 5283 ft | 264 kts | 193° |
| 2026-05-05 11:26 | 43.60608 | -1.23025 | 4901 ft | 253 kts | 193° |
| 2026-05-05 11:27 | 43.58910 | -1.23426 | 4482 ft | 243 kts | 193° |
| 2026-05-05 11:27 | 43.57269 | -1.23809 | 4106 ft | 238 kts | 193° |
| 2026-05-05 11:27 | 43.55641 | -1.24195 | 3726 ft | 238 kts | 194° |
| 2026-05-05 11:27 | 43.54006 | -1.24585 | 3375 ft | 238 kts | 193° |
| 2026-05-05 11:28 | 43.52416 | -1.24956 | 3190 ft | 225 kts | 193° |
| 2026-05-05 11:28 | 43.50908 | -1.25306 | 2989 ft | 215 kts | 193° |
| 2026-05-05 11:28 | 43.49482 | -1.25836 | 2792 ft | 210 kts | 209° |
| 2026-05-05 11:28 | 43.48311 | -1.26933 | 2615 ft | 204 kts | 228° |
| 2026-05-05 11:29 | 43.47493 | -1.28454 | 2524 ft | 193 kts | 246° |
| 2026-05-05 11:29 | 43.47090 | -1.30152 | 2523 ft | 184 kts | 263° |
| 2026-05-05 11:29 | 43.47031 | -1.31825 | 2541 ft | 166 kts | 270° |
| 2026-05-05 11:29 | 43.47017 | -1.33323 | 2526 ft | 149 kts | 270° |
| 2026-05-05 11:30 | 43.47005 | -1.34769 | 2511 ft | 154 kts | 270° |
| 2026-05-05 11:30 | 43.46993 | -1.36249 | 2386 ft | 156 kts | 270° |
| 2026-05-05 11:30 | 43.46979 | -1.37780 | 2188 ft | 164 kts | 271° |
| 2026-05-05 11:30 | 43.46964 | -1.39356 | 1969 ft | 164 kts | 271° |
| 2026-05-05 11:31 | 43.46950 | -1.40874 | 1786 ft | 152 kts | 270° |
| 2026-05-05 11:31 | 43.46936 | -1.42271 | 1545 ft | 140 kts | 270° |
| 2026-05-05 11:31 | 43.46923 | -1.43571 | 1351 ft | 132 kts | 270° |
| 2026-05-05 11:31 | 43.46912 | -1.44824 | 1162 ft | 133 kts | 270° |
| 2026-05-05 11:32 | 43.46901 | -1.46087 | 960 ft | 130 kts | 271° |
| 2026-05-05 11:32 | 43.46888 | -1.47323 | 815 ft | 128 kts | 272° |
| 2026-05-05 11:32 | 43.46878 | -1.48560 | 610 ft | 129 kts | 269° |
| 2026-05-05 11:32 | 43.46864 | -1.49785 | 409 ft | 127 kts | 270° |
| 2026-05-05 11:33 | 43.46850 | -1.50999 | 268 ft | 126 kts | 270° |
| 2026-05-05 11:33 | 43.46838 | -1.52144 | 239 ft | 105 kts | 269° |
| 2026-05-05 11:33 | 43.46831 | -1.52811 | 245 ft | 49 kts | 269° |
| 2026-05-05 11:33 | 43.46828 | -1.53085 | 247 ft | 13 kts | 270° |
| 2026-05-05 11:34 | 43.46887 | -1.53157 | 244 ft | 13 kts | 338° |
| 2026-05-05 11:34 | 43.46931 | -1.53183 | 245 ft | 4 kts | 336° |
| 2026-05-05 11:34 | 43.46952 | -1.53196 | 245 ft | 3 kts | 336° |
| 2026-05-05 11:34 | 43.46972 | -1.53204 | 245 ft | 7 kts | 347° |
| 2026-05-05 11:35 | 43.47028 | -1.53183 | 245 ft | 7 kts | 44° |
| 2026-05-05 11:35 | 43.47060 | -1.53142 | 245 ft | 6 kts | 26° |
| 2026-05-05 11:35 | 43.47095 | -1.53123 | 245 ft | 4 kts | 19° |
| 2026-05-05 11:35 | 43.47111 | -1.53116 | 245 ft | 2 kts | 19° |
| 2026-05-05 11:36 | 43.47120 | -1.53112 | 245 ft | 0 kts | 19° |